Time;durP1;ratioP1;P1;durP2;ratioP2;P2;SDS_P1;SDS_P2;PMS_P1;PMS_P2;Temp;Humidity;BMP_temperature;BMP_pressure;BME280_temperature;BME280_humidity;BME280_pressure;Samples;Min_cycle;Max_cycle;Signal;HPM_P1;HPM_P2
2021/07/26 00:00:25;;;;;;;4.93;1.60;;;27.10;42.70;;;;;;6315602;28;20035;-75
2021/07/26 00:03:26;;;;;;;4.93;1.58;;;27.00;42.70;;;;;;6349985;28;20065;-74
2021/07/26 00:06:27;;;;;;;3.95;1.20;;;27.00;42.70;;;;;;6332468;28;20044;-74
2021/07/26 00:09:28;;;;;;;7.40;1.60;;;27.00;42.90;;;;;;6335122;28;20126;-74
2021/07/26 00:12:29;;;;;;;2.38;1.00;;;27.00;43.00;;;;;;6333893;28;20380;-74
2021/07/26 00:15:30;;;;;;;2.50;1.80;;;27.00;43.10;;;;;;6332236;28;20019;-75
2021/07/26 00:18:31;;;;;;;4.97;1.58;;;27.00;43.10;;;;;;6349666;28;20358;-75
2021/07/26 00:21:32;;;;;;;11.35;1.60;;;26.90;43.10;;;;;;6348656;28;20054;-74
2021/07/26 00:24:33;;;;;;;2.42;1.35;;;26.90;43.20;;;;;;6314886;28;20059;-74
2021/07/26 00:27:34;;;;;;;1.55;1.30;;;26.90;43.30;;;;;;6324921;28;20027;-74
2021/07/26 00:30:36;;;;;;;2.17;1.27;;;26.90;43.50;;;;;;6349328;28;20103;-74
2021/07/26 00:34:08;;;;;;;6.25;1.77;;;26.90;43.60;;;;;;6348768;28;20487;-73
2021/07/26 00:37:09;;;;;;;3.15;1.50;;;26.80;43.70;;;;;;6343279;28;20376;-74
2021/07/26 00:40:10;;;;;;;3.30;1.35;;;26.80;43.80;;;;;;6325588;28;20032;-73
2021/07/26 00:43:11;;;;;;;2.92;1.63;;;26.80;44.00;;;;;;6325935;28;20028;-74
2021/07/26 00:46:12;;;;;;;2.80;2.17;;;26.70;44.10;;;;;;6304636;28;20035;-74
2021/07/26 00:49:15;;;;;;;6.70;1.90;;;26.70;44.10;;;;;;6344221;28;20043;-74
2021/07/26 00:52:16;;;;;;;2.72;1.77;;;26.70;44.20;;;;;;6321696;28;20533;-74
2021/07/26 00:55:17;;;;;;;3.90;1.60;;;26.70;44.40;;;;;;6327125;28;20032;-74
2021/07/26 00:58:18;;;;;;;3.05;1.48;;;26.60;44.40;;;;;;6316856;28;20130;-74
2021/07/26 01:01:18;;;;;;;3.33;1.60;;;26.60;44.50;;;;;;6325496;28;20032;-74
2021/07/26 01:04:19;;;;;;;2.20;1.48;;;26.60;44.70;;;;;;6323607;28;20484;-73
2021/07/26 01:07:21;;;;;;;1.95;1.15;;;26.60;44.80;;;;;;6343405;28;20411;-73
2021/07/26 01:10:21;;;;;;;5.28;1.40;;;26.50;44.90;;;;;;6326349;28;20042;-74
2021/07/26 01:13:26;;;;;;;3.33;1.58;;;26.50;45.00;;;;;;6309575;28;20118;-74
2021/07/26 01:16:27;;;;;;;6.10;1.42;;;26.50;45.00;;;;;;6325884;28;20040;-74
2021/07/26 01:19:28;;;;;;;3.03;1.30;;;26.60;45.10;;;;;;6309742;28;20418;-74
2021/07/26 01:22:29;;;;;;;2.60;1.30;;;26.50;45.10;;;;;;6343410;28;20059;-74
2021/07/26 01:25:34;;;;;;;2.25;1.40;;;26.50;45.20;;;;;;6308682;28;20052;-74
2021/07/26 01:28:39;;;;;;;3.33;1.55;;;26.50;45.20;;;;;;6308987;28;20028;-74
2021/07/26 01:31:40;;;;;;;4.95;1.58;;;26.50;45.20;;;;;;6309482;28;20039;-74
2021/07/26 01:34:41;;;;;;;2.40;1.70;;;26.50;45.20;;;;;;6325494;28;20059;-74
2021/07/26 01:37:41;;;;;;;3.58;1.67;;;26.50;45.10;;;;;;6326096;28;20035;-74
2021/07/26 01:40:44;;;;;;;2.58;1.38;;;26.50;45.10;;;;;;6309269;28;20146;-74
2021/07/26 01:44:10;;;;;;;1.75;1.40;;;26.50;45.10;;;;;;6319774;28;20035;-75
2021/07/26 01:47:13;;;;;;;3.80;1.60;;;26.50;45.10;;;;;;6341562;28;20035;-74
2021/07/26 01:50:18;;;;;;;1.98;1.20;;;26.50;45.20;;;;;;6341910;28;20122;-74
2021/07/26 01:53:19;;;;;;;3.08;1.40;;;26.50;45.20;;;;;;6334176;28;20441;-75
2021/07/26 01:56:20;;;;;;;2.63;1.83;;;26.50;45.10;;;;;;6325836;28;20028;-74
2021/07/26 01:59:21;;;;;;;2.30;1.27;;;26.50;45.10;;;;;;6343783;28;20771;-74
2021/07/26 02:02:23;;;;;;;2.03;1.30;;;26.40;45.10;;;;;;6343106;28;20337;-74
2021/07/26 02:05:24;;;;;;;3.80;1.40;;;26.40;45.10;;;;;;6343526;28;20551;-75
2021/07/26 02:08:25;;;;;;;2.97;1.67;;;26.40;45.20;;;;;;6343044;28;20462;-74
2021/07/26 02:11:26;;;;;;;1.65;1.05;;;26.30;45.10;;;;;;6325664;28;20039;-75
2021/07/26 02:14:27;;;;;;;1.50;1.08;;;26.30;45.00;;;;;;6325619;28;20035;-74
2021/07/26 02:17:28;;;;;;;4.25;1.30;;;26.30;44.90;;;;;;6325814;28;20045;-75
2021/07/26 02:20:29;;;;;;;1.70;1.23;;;26.30;44.80;;;;;;6312534;28;20052;-75
2021/07/26 02:23:30;;;;;;;3.17;1.50;;;26.30;44.60;;;;;;6330209;28;20103;-75
2021/07/26 02:26:31;;;;;;;1.98;1.10;;;26.30;44.60;;;;;;6330000;28;20062;-75
2021/07/26 02:29:31;;;;;;;2.40;1.30;;;26.30;44.50;;;;;;6330277;28;20049;-75
2021/07/26 02:32:32;;;;;;;2.70;1.60;;;26.20;44.30;;;;;;6329678;27;20135;-75
2021/07/26 02:35:33;;;;;;;4.65;1.50;;;26.20;44.40;;;;;;6330209;28;20081;-75
2021/07/26 02:38:34;;;;;;;2.85;1.70;;;26.20;44.40;;;;;;6345981;28;20028;-74
2021/07/26 02:41:35;;;;;;;2.75;1.13;;;26.20;44.40;;;;;;6346923;28;20472;-75
2021/07/26 02:44:36;;;;;;;2.15;1.23;;;26.20;44.30;;;;;;6312933;28;20032;-75
2021/07/26 02:47:37;;;;;;;2.47;1.45;;;26.20;44.40;;;;;;6329881;28;20055;-75
2021/07/26 02:50:38;;;;;;;5.88;1.88;;;26.20;44.20;;;;;;6329240;28;20359;-74
2021/07/26 02:53:38;;;;;;;1.98;1.25;;;26.20;44.20;;;;;;6329380;28;20528;-74
2021/07/26 02:56:42;;;;;;;2.72;1.38;;;26.20;44.10;;;;;;6329617;28;20376;-74
2021/07/26 02:59:44;;;;;;;2.88;1.65;;;26.20;44.40;;;;;;6329790;28;20059;-74
2021/07/26 03:02:44;;;;;;;5.00;1.85;;;26.20;44.60;;;;;;6323021;28;20031;-75
2021/07/26 03:05:45;;;;;;;2.70;1.75;;;26.10;44.70;;;;;;6328732;28;20027;-73
2021/07/26 03:08:46;;;;;;;3.10;1.55;;;26.10;44.80;;;;;;6329195;28;20750;-74
2021/07/26 03:11:47;;;;;;;5.80;1.55;;;26.00;44.80;;;;;;6312726;28;20119;-74
2021/07/26 03:14:48;;;;;;;6.55;1.70;;;26.00;45.30;;;;;;6311326;28;20052;-74
2021/07/26 03:17:50;;;;;;;2.40;1.58;;;26.00;45.70;;;;;;6327661;28;20115;-74
2021/07/26 03:20:51;;;;;;;2.15;1.50;;;26.00;46.10;;;;;;6328668;28;20028;-74
2021/07/26 03:23:52;;;;;;;3.58;1.88;;;26.00;46.20;;;;;;6328995;28;20096;-75
2021/07/26 03:26:53;;;;;;;6.90;1.85;;;25.90;46.30;;;;;;6328555;28;20103;-75
2021/07/26 03:29:54;;;;;;;2.65;1.70;;;25.90;46.50;;;;;;6346326;28;20402;-75
2021/07/26 03:32:55;;;;;;;3.55;1.73;;;25.90;46.60;;;;;;6307864;28;20043;-74
2021/07/26 03:35:56;;;;;;;4.50;1.90;;;25.90;46.60;;;;;;6311495;28;20460;-75
2021/07/26 03:38:57;;;;;;;3.65;1.63;;;25.90;46.60;;;;;;6346322;28;20043;-75
2021/07/26 03:41:59;;;;;;;4.28;1.52;;;26.00;46.60;;;;;;6329941;28;20114;-75
2021/07/26 03:45:00;;;;;;;2.38;1.65;;;26.00;46.70;;;;;;6337132;28;20092;-75
2021/07/26 03:48:02;;;;;;;4.88;2.15;;;26.00;46.80;;;;;;6341804;28;20036;-75
2021/07/26 03:51:02;;;;;;;3.50;1.73;;;26.00;46.70;;;;;;6350677;28;20061;-75
2021/07/26 03:54:03;;;;;;;3.38;1.67;;;26.00;46.80;;;;;;6337044;28;20109;-75
2021/07/26 03:57:05;;;;;;;3.13;1.60;;;26.00;46.80;;;;;;6337272;28;20040;-74
2021/07/26 04:00:06;;;;;;;3.40;1.85;;;26.00;46.80;;;;;;6332662;28;20054;-74
2021/07/26 04:03:24;;;;;;;7.10;2.00;;;26.00;46.90;;;;;;6333758;28;20027;-75
2021/07/26 04:06:25;;;;;;;5.07;1.67;;;26.00;46.90;;;;;;6313342;28;20040;-75
2021/07/26 04:09:32;;;;;;;4.05;2.03;;;26.00;47.00;;;;;;6329369;28;20066;-75
2021/07/26 04:12:34;;;;;;;3.22;2.10;;;25.90;46.90;;;;;;6329837;28;20050;-76
2021/07/26 04:15:36;;;;;;;6.07;1.90;;;25.90;46.60;;;;;;6346369;28;20038;-74
2021/07/26 04:18:36;;;;;;;4.25;1.83;;;25.90;46.40;;;;;;6346855;28;20040;-75
2021/07/26 04:21:37;;;;;;;3.55;1.45;;;25.90;46.20;;;;;;6344739;28;20358;-75
2021/07/26 04:24:38;;;;;;;9.73;1.92;;;25.80;46.10;;;;;;6322177;28;20050;-74
2021/07/26 04:27:39;;;;;;;7.53;1.80;;;25.70;46.00;;;;;;6318095;28;20049;-74
2021/07/26 04:30:40;;;;;;;2.47;1.50;;;25.60;46.10;;;;;;6328594;28;20552;-74
2021/07/26 04:33:41;;;;;;;3.25;1.70;;;25.60;46.10;;;;;;6345825;28;20482;-74
2021/07/26 04:36:42;;;;;;;5.30;1.77;;;25.60;46.20;;;;;;6345801;28;20115;-75
2021/07/26 04:39:43;;;;;;;6.63;1.80;;;25.60;46.20;;;;;;6328490;28;20027;-74
2021/07/26 04:42:44;;;;;;;4.90;1.73;;;25.60;46.20;;;;;;6327907;28;20023;-74
2021/07/26 04:45:45;;;;;;;6.70;2.20;;;25.60;46.30;;;;;;6327634;28;20027;-74
2021/07/26 04:48:46;;;;;;;2.53;1.70;;;25.60;46.30;;;;;;6346067;28;20127;-74
2021/07/26 04:51:47;;;;;;;3.83;1.50;;;25.60;46.30;;;;;;6327945;28;20047;-74
2021/07/26 04:54:48;;;;;;;2.58;1.50;;;25.50;46.40;;;;;;6327938;28;20482;-74
2021/07/26 04:57:49;;;;;;;9.32;1.92;;;25.50;46.50;;;;;;6311161;28;20050;-74
2021/07/26 05:00:49;;;;;;;7.57;2.58;;;25.40;46.50;;;;;;6327192;28;20100;-74
2021/07/26 05:03:50;;;;;;;5.15;1.88;;;25.40;46.70;;;;;;6325909;28;20058;-74
2021/07/26 05:06:57;;;;;;;5.40;1.83;;;25.40;46.90;;;;;;6326863;28;20043;-74
2021/07/26 05:09:58;;;;;;;7.15;1.95;;;25.30;47.10;;;;;;6310566;28;20046;-74
2021/07/26 05:12:59;;;;;;;3.83;1.60;;;25.30;47.20;;;;;;6323024;28;20069;-74
2021/07/26 05:16:00;;;;;;;8.40;2.78;;;25.30;47.20;;;;;;6346300;28;20103;-74
2021/07/26 05:19:01;;;;;;;9.88;1.92;;;25.20;47.20;;;;;;6328634;28;20039;-74
2021/07/26 05:22:03;;;;;;;5.00;1.73;;;25.20;47.30;;;;;;6305917;28;20045;-74
2021/07/26 05:25:06;;;;;;;5.03;1.80;;;25.10;47.40;;;;;;6326382;28;20040;-75
2021/07/26 05:28:06;;;;;;;6.00;2.00;;;25.10;47.50;;;;;;6346234;28;20117;-74
2021/07/26 05:31:07;;;;;;;7.45;2.00;;;25.10;47.60;;;;;;6312409;28;20035;-74
2021/07/26 05:34:08;;;;;;;4.38;1.75;;;25.10;47.80;;;;;;6311270;28;20039;-75
2021/07/26 05:37:09;;;;;;;5.03;1.85;;;25.10;47.90;;;;;;6342900;28;20028;-75
2021/07/26 05:40:11;;;;;;;4.72;2.10;;;25.10;47.90;;;;;;6308250;28;20092;-75
2021/07/26 05:43:13;;;;;;;3.92;1.73;;;25.20;47.90;;;;;;6309130;28;20032;-75
2021/07/26 05:46:14;;;;;;;6.18;2.00;;;25.20;47.90;;;;;;6328464;28;20118;-75
2021/07/26 05:49:15;;;;;;;4.93;1.80;;;25.10;47.90;;;;;;6311866;28;20036;-76
2021/07/26 05:52:17;;;;;;;3.85;2.00;;;25.10;48.10;;;;;;6325547;28;20031;-74
2021/07/26 05:55:18;;;;;;;4.00;2.25;;;25.10;48.10;;;;;;6308505;28;20043;-75
2021/07/26 05:58:18;;;;;;;4.70;1.95;;;25.10;48.10;;;;;;6315076;28;20059;-75
2021/07/26 06:04:24;;;;;;;5.97;1.80;;;25.20;48.20;;;;;;6333438;28;20054;-75
2021/07/26 06:07:25;;;;;;;4.07;1.75;;;25.20;48.20;;;;;;6332823;28;20444;-75
2021/07/26 06:10:26;;;;;;;6.05;1.80;;;25.20;48.00;;;;;;6351499;28;20089;-74
2021/07/26 06:13:27;;;;;;;13.65;2.22;;;25.30;48.10;;;;;;6332525;28;20472;-73
2021/07/26 06:16:27;;;;;;;7.65;1.98;;;25.40;48.10;;;;;;6332940;28;20399;-75
2021/07/26 06:19:28;;;;;;;3.78;2.05;;;25.40;48.00;;;;;;6332216;28;20247;-75
2021/07/26 06:22:30;;;;;;;21.13;2.63;;;25.60;47.90;;;;;;6350508;28;20028;-75
2021/07/26 06:25:30;;;;;;;7.38;2.05;;;25.70;47.80;;;;;;6331467;28;20461;-75
2021/07/26 06:28:32;;;;;;;4.53;1.90;;;25.80;47.60;;;;;;6331655;28;20073;-74
2021/07/26 06:31:33;;;;;;;6.80;1.70;;;25.90;47.40;;;;;;6349459;28;20554;-74
2021/07/26 06:34:34;;;;;;;4.95;1.77;;;26.00;47.30;;;;;;6332334;28;20086;-75
2021/07/26 06:37:35;;;;;;;7.25;2.30;;;26.00;47.20;;;;;;6332884;28;20055;-75
2021/07/26 06:40:36;;;;;;;4.68;2.25;;;26.00;47.00;;;;;;6331634;28;20464;-76
2021/07/26 06:43:37;;;;;;;4.78;1.73;;;26.10;47.00;;;;;;6331819;28;20028;-74
2021/07/26 06:46:40;;;;;;;3.40;2.10;;;26.20;46.90;;;;;;6315328;28;20544;-74
2021/07/26 06:49:41;;;;;;;4.47;1.92;;;26.30;46.70;;;;;;6296672;28;20089;-75
2021/07/26 06:52:42;;;;;;;9.85;2.03;;;26.40;46.60;;;;;;6331795;28;20623;-75
2021/07/26 06:55:43;;;;;;;3.28;1.85;;;26.50;46.50;;;;;;6315828;28;20065;-77
2021/07/26 06:58:44;;;;;;;4.82;2.17;;;26.60;46.40;;;;;;6316841;28;20028;-75
2021/07/26 07:01:45;;;;;;;5.38;1.50;;;26.60;46.30;;;;;;6333022;28;20114;-75
2021/07/26 07:04:47;;;;;;;3.25;1.92;;;26.60;46.20;;;;;;6345780;27;20081;-75
2021/07/26 07:07:48;;;;;;;5.10;2.25;;;26.70;46.30;;;;;;6332020;28;20031;-74
2021/07/26 07:10:49;;;;;;;4.93;2.15;;;26.70;46.40;;;;;;6331414;28;20047;-75
2021/07/26 07:13:51;;;;;;;4.95;2.03;;;26.80;46.10;;;;;;6314619;28;20039;-76
2021/07/26 07:16:52;;;;;;;5.32;2.33;;;26.80;46.00;;;;;;6331389;28;20062;-75
2021/07/26 07:19:54;;;;;;;5.47;2.28;;;26.80;46.00;;;;;;6331751;28;20042;-75
2021/07/26 07:22:54;;;;;;;6.90;1.98;;;26.90;46.10;;;;;;6329747;28;20467;-76
2021/07/26 07:25:55;;;;;;;4.35;2.08;;;26.90;46.00;;;;;;6331428;28;20063;-74
2021/07/26 07:28:56;;;;;;;7.35;1.90;;;27.00;45.90;;;;;;6331092;28;20464;-74
2021/07/26 07:32:00;;;;;;;4.03;1.92;;;27.20;46.10;;;;;;6313451;28;20043;-76
2021/07/26 07:35:01;;;;;;;10.18;1.88;;;27.00;46.00;;;;;;6314399;28;20028;-75
2021/07/26 07:38:02;;;;;;;3.42;1.83;;;27.10;45.80;;;;;;6330914;28;20056;-75
2021/07/26 07:41:05;;;;;;;8.20;2.95;;;27.20;45.50;;;;;;6313232;28;20028;-75
2021/07/26 07:44:05;;;;;;;3.42;1.60;;;27.20;45.00;;;;;;6314275;28;20089;-75
2021/07/26 07:47:11;;;;;;;3.88;1.88;;;27.20;44.80;;;;;;6330569;28;20457;-75
2021/07/26 07:50:14;;;;;;;4.28;2.15;;;27.20;44.40;;;;;;6330665;28;20056;-75
2021/07/26 07:53:16;;;;;;;5.72;1.85;;;27.30;44.30;;;;;;6329593;28;20104;-75
2021/07/26 07:56:17;;;;;;;3.30;1.55;;;27.30;44.20;;;;;;6314229;28;20031;-75
2021/07/26 07:59:18;;;;;;;3.70;1.70;;;27.30;44.10;;;;;;6312962;28;20346;-77
2021/07/26 08:02:19;;;;;;;3.50;1.60;;;27.30;44.10;;;;;;6329683;28;20035;-75
2021/07/26 08:05:20;;;;;;;2.92;1.85;;;27.30;44.10;;;;;;6329761;28;20414;-75
2021/07/26 08:08:21;;;;;;;8.25;2.35;;;27.40;44.00;;;;;;6330111;28;20464;-76
2021/07/26 08:11:22;;;;;;;7.15;1.73;;;27.60;43.70;;;;;;6312954;28;20032;-76
2021/07/26 08:14:23;;;;;;;4.13;2.17;;;27.80;43.50;;;;;;6347687;28;20039;-76
2021/07/26 08:17:24;;;;;;;4.47;1.75;;;27.90;43.10;;;;;;6347268;28;20486;-76
2021/07/26 08:20:25;;;;;;;4.25;1.85;;;28.10;42.80;;;;;;6364618;28;20061;-76
2021/07/26 08:23:27;;;;;;;4.70;1.92;;;28.20;42.50;;;;;;6351768;28;20039;-76
2021/07/26 08:26:28;;;;;;;5.07;1.95;;;28.20;42.50;;;;;;6358534;28;20035;-75
2021/07/26 08:29:30;;;;;;;4.10;1.85;;;28.20;42.70;;;;;;6343721;28;20415;-75
2021/07/26 08:32:32;;;;;;;7.82;2.30;;;28.30;42.70;;;;;;6347502;28;20038;-74
2021/07/26 08:35:34;;;;;;;7.32;2.40;;;28.20;42.70;;;;;;6328631;28;20353;-76
2021/07/26 08:38:35;;;;;;;3.88;1.98;;;28.30;42.70;;;;;;6310411;28;20036;-76
2021/07/26 08:41:36;;;;;;;3.67;2.40;;;28.30;42.50;;;;;;6328013;28;20028;-76
2021/07/26 08:44:37;;;;;;;4.95;1.95;;;28.40;42.40;;;;;;6327707;28;20028;-75
2021/07/26 08:47:42;;;;;;;2.90;1.95;;;28.40;42.30;;;;;;6327521;28;20441;-76
2021/07/26 08:50:46;;;;;;;5.90;2.50;;;28.40;42.20;;;;;;6309552;28;20414;-76
2021/07/26 08:53:50;;;;;;;15.05;2.80;;;28.40;43.00;;;;;;6311976;28;20031;-75
2021/07/26 08:56:51;;;;;;;6.70;2.72;;;28.40;42.30;;;;;;6329860;28;20077;-76
2021/07/26 08:59:53;;;;;;;25.92;2.75;;;28.60;42.00;;;;;;6307288;28;20036;-76
2021/07/26 09:02:54;;;;;;;19.02;2.47;;;28.80;41.80;;;;;;6330118;28;20675;-75
2021/07/26 09:05:55;;;;;;;5.50;2.42;;;28.70;41.70;;;;;;6330672;28;20085;-75
2021/07/26 09:08:58;;;;;;;6.18;1.92;;;28.60;42.00;;;;;;6329923;28;20039;-75
2021/07/26 09:11:59;;;;;;;3.85;2.28;;;28.50;42.20;;;;;;6330234;28;20047;-75
2021/07/26 09:15:01;;;;;;;6.70;2.63;;;28.40;42.30;;;;;;6329906;28;20035;-77
2021/07/26 09:18:07;;;;;;;4.95;2.35;;;28.40;42.20;;;;;;6329913;28;20369;-75
2021/07/26 09:21:08;;;;;;;3.67;2.00;;;28.40;42.20;;;;;;6328760;28;20028;-76
2021/07/26 09:24:09;;;;;;;4.00;2.60;;;28.50;42.10;;;;;;6347078;28;20043;-76
2021/07/26 09:27:13;;;;;;;7.88;2.42;;;28.50;42.00;;;;;;6329039;28;20050;-75
2021/07/26 09:30:15;;;;;;;5.63;2.47;;;28.40;42.00;;;;;;6312897;28;20088;-77
2021/07/26 09:33:32;;;;;;;8.38;2.72;;;28.40;42.10;;;;;;6312853;28;20042;-75
2021/07/26 09:36:38;;;;;;;4.93;2.90;;;28.40;42.30;;;;;;6331027;28;20040;-75
2021/07/26 09:39:39;;;;;;;4.75;2.67;;;28.30;42.20;;;;;;6329353;28;20024;-75
2021/07/26 09:42:40;;;;;;;9.82;2.22;;;28.30;42.30;;;;;;6328180;28;20039;-76
2021/07/26 09:45:42;;;;;;;6.65;2.47;;;28.30;42.20;;;;;;6311246;28;20039;-76
2021/07/26 09:48:42;;;;;;;10.18;2.90;;;28.30;42.10;;;;;;6307928;28;20028;-75
2021/07/26 09:52:03;;;;;;;6.88;2.42;;;28.30;42.00;;;;;;6328316;28;20081;-75
2021/07/26 09:55:04;;;;;;;7.88;2.63;;;28.30;41.80;;;;;;6343797;28;20046;-75
2021/07/26 09:58:06;;;;;;;9.40;2.55;;;28.50;41.80;;;;;;6327556;28;20028;-77
2021/07/26 10:01:08;;;;;;;3.83;2.60;;;28.60;41.50;;;;;;6328013;28;20476;-76
2021/07/26 10:04:11;;;;;;;6.75;3.10;;;28.70;41.40;;;;;;6326640;28;20040;-76
2021/07/26 10:07:14;;;;;;;3.78;2.47;;;28.70;41.40;;;;;;6327915;28;20028;-76
2021/07/26 10:10:15;;;;;;;4.25;2.88;;;28.70;41.40;;;;;;6328005;28;20032;-77
2021/07/26 10:13:18;;;;;;;9.52;2.63;;;28.80;41.30;;;;;;6328996;28;20043;-76
2021/07/26 10:16:20;;;;;;;6.28;2.97;;;28.90;41.20;;;;;;6329017;28;20039;-78
2021/07/26 10:19:21;;;;;;;4.47;2.60;;;28.90;41.20;;;;;;6347432;28;20096;-77
2021/07/26 10:22:27;;;;;;;8.40;3.03;;;29.00;41.30;;;;;;6328153;28;20032;-78
2021/07/26 10:25:35;;;;;;;7.05;3.30;;;29.00;41.20;;;;;;6346689;28;20040;-77
2021/07/26 10:28:40;;;;;;;7.88;2.80;;;29.10;41.00;;;;;;6328155;28;20035;-77
2021/07/26 10:31:41;;;;;;;6.57;2.78;;;29.20;40.80;;;;;;6346308;28;20162;-78
2021/07/26 10:34:44;;;;;;;6.10;2.75;;;29.30;40.50;;;;;;6341643;28;20040;-77
2021/07/26 10:37:45;;;;;;;4.75;3.00;;;29.30;40.30;;;;;;6346037;28;20050;-77
2021/07/26 10:40:46;;;;;;;10.70;3.22;;;29.30;40.20;;;;;;6351904;28;20031;-77
2021/07/26 10:43:59;;;;;;;12.70;3.10;;;29.30;40.30;;;;;;6353875;28;20028;-77
2021/07/26 10:47:12;;;;;;;8.63;3.08;;;29.40;40.20;;;;;;6310343;28;20414;-78
2021/07/26 10:50:14;;;;;;;6.47;3.80;;;29.40;40.00;;;;;;6324073;28;20365;-77
2021/07/26 10:53:36;;;;;;;5.20;3.00;;;29.40;40.00;;;;;;6356844;28;20043;-78
2021/07/26 10:57:05;;;;;;;5.85;2.80;;;29.40;40.10;;;;;;6340123;28;20089;-78
2021/07/26 11:00:13;;;;;;;14.38;3.60;;;29.40;40.10;;;;;;6300201;28;20370;-77
2021/07/26 11:03:41;;;;;;;6.30;3.00;;;29.40;39.80;;;;;;6333302;28;20101;-77
2021/07/26 11:06:42;;;;;;;7.03;2.92;;;29.50;39.40;;;;;;6324607;28;20038;-77
2021/07/26 11:09:44;;;;;;;5.63;2.60;;;30.30;38.50;;;;;;6329989;28;20032;-78
2021/07/26 11:12:53;;;;;;;7.47;3.30;;;31.30;37.00;;;;;;6347410;28;20106;-77
2021/07/26 11:15:55;;;;;;;11.52;2.97;;;32.20;35.60;;;;;;6329787;28;20039;-77
2021/07/26 11:18:56;;;;;;;6.50;2.58;;;32.90;34.30;;;;;;6313545;28;20027;-78
2021/07/26 11:21:58;;;;;;;6.13;2.97;;;33.50;33.30;;;;;;6329364;28;20114;-77
2021/07/26 11:25:06;;;;;;;5.15;3.15;;;34.10;32.50;;;;;;6327809;28;20071;-78
2021/07/26 11:28:08;;;;;;;11.90;3.25;;;34.50;31.20;;;;;;6346896;28;20028;-77
2021/07/26 11:31:09;;;;;;;4.15;2.70;;;34.70;30.80;;;;;;6309036;28;20479;-79
2021/07/26 11:34:14;;;;;;;7.20;2.60;;;34.90;30.40;;;;;;6306835;28;20077;-76
2021/07/26 11:37:15;;;;;;;6.15;2.97;;;35.10;30.10;;;;;;6346246;28;20038;-77
2021/07/26 11:40:19;;;;;;;6.45;3.30;;;35.10;29.80;;;;;;6313331;28;20371;-76
2021/07/26 11:43:36;;;;;;;4.07;2.75;;;35.10;30.00;;;;;;6346647;28;20035;-78
2021/07/26 11:46:47;;;;;;;12.38;2.83;;;35.20;29.80;;;;;;6324407;28;20140;-77
2021/07/26 11:49:49;;;;;;;9.55;2.70;;;35.50;29.30;;;;;;6321867;28;20438;-77
2021/07/26 11:52:54;;;;;;;5.78;3.00;;;35.60;29.10;;;;;;6307525;28;20024;-77
2021/07/26 11:55:55;;;;;;;4.65;2.72;;;35.70;29.00;;;;;;6306563;28;20050;-78
2021/07/26 11:59:16;;;;;;;6.20;2.70;;;35.70;29.00;;;;;;6309251;28;20066;-76
2021/07/26 12:02:32;;;;;;;5.00;2.50;;;35.70;29.20;;;;;;6327810;28;20357;-76
2021/07/26 12:05:35;;;;;;;5.38;2.53;;;35.70;29.20;;;;;;6326458;28;20038;-77
2021/07/26 12:08:36;;;;;;;7.25;2.25;;;35.80;29.10;;;;;;6328762;28;20349;-78
2021/07/26 12:11:38;;;;;;;8.98;2.85;;;36.00;29.00;;;;;;6309707;28;20028;-77
2021/07/26 12:14:40;;;;;;;4.43;2.80;;;35.80;28.90;;;;;;6329336;28;20127;-78
2021/07/26 12:17:41;;;;;;;6.82;2.45;;;35.80;28.90;;;;;;6311520;28;20066;-79
2021/07/26 12:20:42;;;;;;;6.75;3.38;;;35.80;28.70;;;;;;6328240;28;20119;-76
2021/07/26 12:23:44;;;;;;;9.10;2.90;;;35.70;28.90;;;;;;6312744;28;20061;-79
2021/07/26 12:27:28;;;;;;;8.82;2.72;;;35.60;28.80;;;;;;6343195;28;20051;-78
2021/07/26 12:30:40;;;;;;;4.40;2.63;;;35.80;28.60;;;;;;6328578;28;20024;-78
2021/07/26 12:33:40;;;;;;;7.85;2.40;;;36.00;28.30;;;;;;6310793;28;20070;-79
2021/07/26 12:36:42;;;;;;;4.00;2.35;;;36.00;28.10;;;;;;6334903;28;20033;-79
2021/07/26 12:39:43;;;;;;;9.50;3.30;;;36.00;28.30;;;;;;6321470;28;20105;-78
2021/07/26 12:43:12;;;;;;;6.72;2.13;;;36.10;28.00;;;;;;6324933;28;20051;-78
2021/07/26 12:46:13;;;;;;;7.63;2.80;;;36.30;28.00;;;;;;6321461;28;20035;-79
2021/07/26 12:49:19;;;;;;;5.28;2.60;;;36.80;27.40;;;;;;6349145;28;20035;-78
2021/07/26 12:52:20;;;;;;;7.03;2.75;;;37.20;27.60;;;;;;6344187;28;20111;-80
2021/07/26 12:55:21;;;;;;;6.28;2.80;;;37.40;27.20;;;;;;6310626;28;20528;-79
2021/07/26 12:58:23;;;;;;;4.47;2.53;;;37.60;26.40;;;;;;6329945;28;20046;-80
2021/07/26 13:01:25;;;;;;;6.00;2.83;;;37.70;26.20;;;;;;6313409;28;20469;-80
2021/07/26 13:04:26;;;;;;;5.47;2.60;;;37.90;25.90;;;;;;6330605;28;20058;-79
2021/07/26 13:07:26;;;;;;;6.65;2.78;;;38.20;25.50;;;;;;6307914;28;20040;-80
2021/07/26 13:10:27;;;;;;;4.28;2.50;;;38.40;25.30;;;;;;6332503;28;20040;-80
2021/07/26 13:13:28;;;;;;;6.13;2.05;;;38.70;25.10;;;;;;6330841;28;20047;-80
2021/07/26 13:16:29;;;;;;;7.03;2.50;;;39.00;24.80;;;;;;6351681;28;20421;-80
2021/07/26 13:19:30;;;;;;;4.57;2.58;;;39.00;24.70;;;;;;6333742;28;20035;-79
2021/07/26 13:22:31;;;;;;;5.45;2.88;;;39.30;24.40;;;;;;6336116;28;20035;-79
2021/07/26 13:25:32;;;;;;;3.97;2.42;;;39.70;24.20;;;;;;6336578;28;20040;-77
2021/07/26 13:28:33;;;;;;;8.52;2.50;;;40.10;23.90;;;;;;6355599;28;20031;-79
2021/07/26 13:31:35;;;;;;;18.13;3.17;;;40.50;23.60;;;;;;6320053;28;20035;-78
2021/07/26 13:34:36;;;;;;;7.10;2.60;;;41.00;23.10;;;;;;6337805;28;20138;-80
2021/07/26 13:37:38;;;;;;;3.72;2.58;;;41.40;22.60;;;;;;6315190;28;20342;-79
2021/07/26 13:40:39;;;;;;;7.10;2.70;;;41.90;22.30;;;;;;6312307;28;20076;-79
2021/07/26 13:43:40;;;;;;;9.20;2.63;;;42.50;21.80;;;;;;6306495;28;20046;-79
2021/07/26 13:46:41;;;;;;;4.93;2.50;;;43.10;21.40;;;;;;6327447;28;20028;-80
2021/07/26 13:49:43;;;;;;;8.20;2.38;;;43.20;21.00;;;;;;6327675;28;20039;-78
2021/07/26 13:52:44;;;;;;;7.60;2.33;;;43.30;20.90;;;;;;6326684;28;20119;-79
2021/07/26 13:55:45;;;;;;;3.58;2.33;;;43.20;21.20;;;;;;6328182;28;20023;-78
2021/07/26 13:58:46;;;;;;;3.83;2.47;;;43.40;20.60;;;;;;6345013;28;20041;-78
2021/07/26 14:01:47;;;;;;;6.72;2.47;;;43.40;20.60;;;;;;6327890;28;20116;-79
2021/07/26 14:04:48;;;;;;;6.85;2.53;;;42.90;20.80;;;;;;6308203;28;20042;-78
2021/07/26 14:07:49;;;;;;;6.57;2.78;;;42.30;21.40;;;;;;6325900;28;20027;-78
2021/07/26 14:10:51;;;;;;;4.72;1.90;;;41.80;21.60;;;;;;6307161;28;20397;-78
2021/07/26 14:13:52;;;;;;;4.35;2.33;;;41.10;22.10;;;;;;6344223;28;20487;-78
2021/07/26 14:16:53;;;;;;;6.00;2.50;;;40.50;22.50;;;;;;6314782;28;20032;-80
2021/07/26 14:19:54;;;;;;;6.95;2.85;;;40.60;22.40;;;;;;6330078;28;20054;-78
2021/07/26 14:22:55;;;;;;;6.03;3.00;;;40.00;22.80;;;;;;6299922;28;20077;-79
2021/07/26 14:25:56;;;;;;;4.65;2.08;;;40.10;23.00;;;;;;6330470;28;20039;-79
2021/07/26 14:28:57;;;;;;;3.80;2.40;;;40.80;22.40;;;;;;6296280;28;20457;-79
2021/07/26 14:32:00;;;;;;;3.55;2.28;;;41.10;21.90;;;;;;6347052;28;20044;-78
2021/07/26 14:35:01;;;;;;;7.13;2.30;;;41.40;22.00;;;;;;6313850;28;20035;-79
2021/07/26 14:38:07;;;;;;;9.73;2.50;;;42.20;21.50;;;;;;6314253;28;20063;-79
2021/07/26 14:41:08;;;;;;;5.18;2.45;;;42.50;21.20;;;;;;6330729;28;20030;-79
2021/07/26 14:44:08;;;;;;;4.50;2.50;;;42.60;21.00;;;;;;6313300;28;20467;-78
2021/07/26 14:47:10;;;;;;;5.20;2.63;;;42.80;20.60;;;;;;6312575;28;20032;-79
2021/07/26 14:50:12;;;;;;;4.32;2.05;;;42.50;20.50;;;;;;6331004;28;20035;-78
2021/07/26 14:53:13;;;;;;;3.97;1.95;;;42.10;21.00;;;;;;6330205;28;20369;-78
2021/07/26 14:56:14;;;;;;;5.15;2.55;;;42.30;20.80;;;;;;6330687;28;20051;-78
2021/07/26 14:59:14;;;;;;;5.53;2.53;;;42.60;20.50;;;;;;6329991;28;20048;-78
2021/07/26 15:02:15;;;;;;;4.78;2.58;;;42.70;20.50;;;;;;6312851;28;20101;-78
2021/07/26 15:05:16;;;;;;;3.92;2.33;;;41.90;21.10;;;;;;6330642;28;20046;-78
2021/07/26 15:08:20;;;;;;;3.78;2.10;;;40.90;22.00;;;;;;6330323;28;20368;-78
2021/07/26 15:11:21;;;;;;;7.00;2.60;;;39.80;22.80;;;;;;6311879;28;20062;-78
2021/07/26 15:14:22;;;;;;;3.72;2.40;;;38.90;23.60;;;;;;6329157;28;20063;-78
2021/07/26 15:17:23;;;;;;;5.43;2.22;;;38.10;24.20;;;;;;6309389;28;20024;-78
2021/07/26 15:20:24;;;;;;;3.17;2.20;;;37.40;25.00;;;;;;6312076;28;20035;-79
2021/07/26 15:23:28;;;;;;;3.70;2.25;;;36.70;25.70;;;;;;6328741;28;20039;-79
2021/07/26 15:26:30;;;;;;;2.47;2.13;;;36.10;26.30;;;;;;6328340;28;20377;-79
2021/07/26 15:29:31;;;;;;;5.35;2.97;;;36.00;26.50;;;;;;6330310;28;20048;-79
2021/07/26 15:32:31;;;;;;;5.72;2.50;;;36.90;25.80;;;;;;6336098;28;20031;-77
2021/07/26 15:35:34;;;;;;;4.35;2.78;;;37.90;24.90;;;;;;6345265;28;20039;-78
2021/07/26 15:38:35;;;;;;;8.38;2.35;;;39.00;24.00;;;;;;6345975;28;20122;-78
2021/07/26 15:41:35;;;;;;;7.05;2.92;;;40.00;23.20;;;;;;6328591;28;20039;-77
2021/07/26 15:44:36;;;;;;;4.28;2.20;;;40.80;22.50;;;;;;6346781;28;20096;-78
2021/07/26 15:47:37;;;;;;;3.35;2.47;;;41.50;21.80;;;;;;6311966;28;20039;-78
2021/07/26 15:50:40;;;;;;;6.22;2.17;;;41.70;21.70;;;;;;6328939;28;20039;-78